createdAt,value
2022-08-25T00:01:40.425Z,2.63
2022-08-25T00:04:10.910Z,4.43
2022-08-25T00:06:40.167Z,3.55
2022-08-25T00:09:08.357Z,3.00
2022-08-25T00:11:36.888Z,5.05
2022-08-25T00:14:11.541Z,2.85
2022-08-25T00:16:38.410Z,4.00
2022-08-25T00:19:09.426Z,4.13
2022-08-25T00:21:36.251Z,3.22
2022-08-25T00:24:03.371Z,8.38
2022-08-25T00:26:30.574Z,2.22
2022-08-25T00:29:01.894Z,2.72
2022-08-25T00:31:37.649Z,5.43
2022-08-25T00:34:09.578Z,3.60
2022-08-25T00:36:36.494Z,4.53
2022-08-25T00:39:04.785Z,6.32
2022-08-25T00:41:31.614Z,3.95
2022-08-25T00:44:05.515Z,2.80
2022-08-25T00:46:37.575Z,4.90
2022-08-25T00:49:20.864Z,2.67
2022-08-25T00:52:00.510Z,3.80
2022-08-25T00:54:34.894Z,3.35
2022-08-25T00:57:03.255Z,4.55
2022-08-25T00:59:30.456Z,3.13
2022-08-25T01:01:58.463Z,3.60
2022-08-25T01:04:25.726Z,5.22
2022-08-25T01:06:53.586Z,3.13
2022-08-25T01:09:20.811Z,4.53
2022-08-25T01:11:48.241Z,4.10
2022-08-25T01:14:18.903Z,3.67
2022-08-25T01:16:46.314Z,5.65
2022-08-25T01:19:17.681Z,2.65
2022-08-25T01:21:49.076Z,3.05
2022-08-25T01:24:36.565Z,6.63
2022-08-25T01:27:04.312Z,5.47
2022-08-25T01:29:31.724Z,6.95
2022-08-25T01:32:06.109Z,3.05
2022-08-25T01:34:35.733Z,4.60
2022-08-25T01:37:03.209Z,3.47
2022-08-25T01:39:33.898Z,3.85
2022-08-25T01:42:06.606Z,3.70
2022-08-25T01:44:35.946Z,3.55
2022-08-25T01:47:04.521Z,4.82
2022-08-25T01:49:31.452Z,2.90
2022-08-25T01:52:05.690Z,3.45
2022-08-25T01:54:32.589Z,4.53
2022-08-25T01:56:59.838Z,4.65
2022-08-25T01:59:27.503Z,9.55
2022-08-25T02:02:00.206Z,4.30
2022-08-25T02:04:32.241Z,6.55
2022-08-25T02:07:00.813Z,4.53
2022-08-25T02:09:27.998Z,6.07
2022-08-25T02:11:56.695Z,3.22
2022-08-25T02:14:23.842Z,7.18
2022-08-25T02:16:52.537Z,14.18
2022-08-25T02:19:21.238Z,6.28
2022-08-25T02:21:48.648Z,5.47
2022-08-25T02:24:15.564Z,3.92
2022-08-25T02:26:42.724Z,3.40
2022-08-25T02:29:10.268Z,4.68
2022-08-25T02:31:38.214Z,6.65
2022-08-25T02:34:06.581Z,3.10
2022-08-25T02:36:33.729Z,3.67
2022-08-25T02:39:01.397Z,3.58
2022-08-25T02:41:30.891Z,4.60
2022-08-25T02:43:59.948Z,4.63
2022-08-25T02:46:26.829Z,3.15
2022-08-25T02:48:54.186Z,4.50
2022-08-25T02:51:23.702Z,5.35
2022-08-25T02:53:50.869Z,4.05
2022-08-25T02:56:19.825Z,5.63
2022-08-25T02:58:47.269Z,4.07
2022-08-25T03:01:15.219Z,6.57
2022-08-25T03:03:44.367Z,5.85
2022-08-25T03:06:14.173Z,5.15
2022-08-25T03:08:42.793Z,4.90
2022-08-25T03:11:10.520Z,4.80
2022-08-25T03:13:37.829Z,4.15
2022-08-25T03:16:06.102Z,3.88
2022-08-25T03:18:41.136Z,6.68
2022-08-25T03:21:11.372Z,5.13
2022-08-25T03:23:39.768Z,3.33
2022-08-25T03:26:26.095Z,4.45
2022-08-25T03:28:55.426Z,4.55
2022-08-25T03:31:23.418Z,3.85
2022-08-25T03:33:50.259Z,4.97
2022-08-25T03:36:17.296Z,5.15
2022-08-25T03:38:44.138Z,5.78
2022-08-25T03:41:24.356Z,4.25
2022-08-25T03:43:55.315Z,3.28
2022-08-25T03:46:36.944Z,3.97
2022-08-25T03:49:07.157Z,5.90
2022-08-25T03:51:37.810Z,6.20
2022-08-25T03:54:05.359Z,4.05
2022-08-25T03:56:32.373Z,8.82
2022-08-25T03:58:59.443Z,6.38
2022-08-25T04:01:26.559Z,5.38
2022-08-25T04:03:53.947Z,8.27
2022-08-25T04:06:21.685Z,5.50
2022-08-25T04:08:48.835Z,6.32
2022-08-25T04:11:20.900Z,6.05
2022-08-25T04:13:48.871Z,5.55
2022-08-25T04:16:21.256Z,8.90
2022-08-25T04:18:50.913Z,7.80
2022-08-25T04:21:19.618Z,7.45
2022-08-25T04:23:48.886Z,7.72
2022-08-25T04:26:19.634Z,12.02
2022-08-25T04:28:47.570Z,11.13
2022-08-25T04:31:16.111Z,10.77
2022-08-25T04:33:43.184Z,9.75
2022-08-25T04:36:14.336Z,11.43
2022-08-25T04:38:42.118Z,10.38
2022-08-25T04:41:11.438Z,12.77
2022-08-25T04:43:39.960Z,13.65
2022-08-25T04:46:13.095Z,14.32
2022-08-25T04:48:40.999Z,12.15
2022-08-25T04:51:13.232Z,13.75
2022-08-25T04:53:40.853Z,9.65
2022-08-25T04:56:13.459Z,11.18
2022-08-25T04:58:41.612Z,10.35
2022-08-25T05:01:15.791Z,12.57
2022-08-25T05:03:43.587Z,13.57
2022-08-25T05:06:15.277Z,15.57
2022-08-25T05:08:42.970Z,16.45
2022-08-25T05:11:14.828Z,12.63
2022-08-25T05:13:44.074Z,16.40
2022-08-25T05:16:18.980Z,12.07
2022-08-25T05:18:45.861Z,10.00
2022-08-25T05:21:18.725Z,13.30
2022-08-25T05:23:47.491Z,11.30
2022-08-25T05:26:20.450Z,14.63
2022-08-25T05:28:51.612Z,13.65
2022-08-25T05:31:19.921Z,18.80
2022-08-25T05:33:47.193Z,13.82
2022-08-25T05:36:14.814Z,13.23
2022-08-25T05:38:42.552Z,12.07
2022-08-25T05:41:16.264Z,13.98
2022-08-25T05:43:45.156Z,14.20
2022-08-25T05:46:13.036Z,13.45
2022-08-25T05:48:39.901Z,13.00
2022-08-25T05:51:10.085Z,17.00
2022-08-25T05:53:39.195Z,12.55
2022-08-25T05:56:06.237Z,14.95
2022-08-25T05:58:33.264Z,11.25
2022-08-25T06:01:23.469Z,16.20
2022-08-25T06:03:53.282Z,10.90
2022-08-25T06:06:22.082Z,14.27
2022-08-25T06:08:49.098Z,14.68
2022-08-25T06:11:16.475Z,15.45
2022-08-25T06:13:43.420Z,10.93
2022-08-25T06:16:10.320Z,11.82
2022-08-25T06:18:37.202Z,12.75
2022-08-25T06:21:09.192Z,17.20
2022-08-25T06:23:38.181Z,11.95
2022-08-25T06:26:05.637Z,10.57
2022-08-25T06:28:32.484Z,12.68
2022-08-25T06:31:00.945Z,12.75
2022-08-25T06:33:28.063Z,9.82
2022-08-25T06:35:56.203Z,9.38
2022-08-25T06:38:23.983Z,9.82
2022-08-25T06:40:52.026Z,10.73
2022-08-25T06:43:22.829Z,11.27
2022-08-25T06:45:49.665Z,12.95
2022-08-25T06:48:16.745Z,13.38
2022-08-25T06:50:44.686Z,16.55
2022-08-25T06:53:11.968Z,12.95
2022-08-25T06:55:39.317Z,14.77
2022-08-25T06:58:06.530Z,10.38
2022-08-25T07:00:37.525Z,10.63
2022-08-25T07:03:04.994Z,12.90
2022-08-25T07:05:43.526Z,12.77
2022-08-25T07:08:11.962Z,8.85
2022-08-25T07:10:39.085Z,11.05
2022-08-25T07:13:05.896Z,10.63
2022-08-25T07:15:32.690Z,9.45
2022-08-25T07:17:59.467Z,10.40
2022-08-25T07:22:58.164Z,10.77
2022-08-25T07:25:25.105Z,12.23
2022-08-25T07:27:53.860Z,12.32
2022-08-25T07:30:23.981Z,12.32
2022-08-25T07:32:52.022Z,8.73
2022-08-25T07:35:26.332Z,11.02
2022-08-25T07:37:58.893Z,10.20
2022-08-25T07:40:31.948Z,8.27
2022-08-25T07:43:01.433Z,10.57
2022-08-25T07:45:30.896Z,10.57
2022-08-25T07:47:58.525Z,9.20
2022-08-25T07:50:26.351Z,9.13
2022-08-25T07:52:55.022Z,9.13
2022-08-25T07:55:23.527Z,8.05
2022-08-25T07:57:55.416Z,11.23
2022-08-25T08:00:24.398Z,8.38
2022-08-25T08:02:51.600Z,10.18
2022-08-25T08:05:18.422Z,7.15
2022-08-25T08:07:45.182Z,6.20
2022-08-25T08:10:47.861Z,13.65
2022-08-25T08:13:02.021Z,8.65
2022-08-25T08:15:29.963Z,7.15
2022-08-25T08:17:58.671Z,5.72
2022-08-25T08:20:26.448Z,5.53
2022-08-25T08:22:53.214Z,5.93
2022-08-25T08:25:21.362Z,5.13
2022-08-25T08:27:54.968Z,6.75
2022-08-25T08:30:25.863Z,4.63
2022-08-25T08:33:11.825Z,3.55
2022-08-25T08:35:40.417Z,3.92
2022-08-25T08:38:14.781Z,4.28
2022-08-25T08:41:54.317Z,4.82
2022-08-25T08:44:41.334Z,5.13
2022-08-25T08:47:19.816Z,3.05
2022-08-25T08:50:24.943Z,5.18
2022-08-25T08:53:25.834Z,3.00
2022-08-25T08:55:58.199Z,5.43
2022-08-25T08:58:51.108Z,6.80
2022-08-25T09:01:34.945Z,3.22
2022-08-25T09:04:24.456Z,4.60
2022-08-25T09:06:51.733Z,4.43
2022-08-25T09:09:40.160Z,5.63
2022-08-25T09:12:14.604Z,5.80
2022-08-25T09:14:56.789Z,2.90
2022-08-25T09:17:54.503Z,4.78
2022-08-25T09:20:43.399Z,2.88
2022-08-25T09:23:25.289Z,2.85
2022-08-25T09:26:19.737Z,6.68
2022-08-25T09:28:51.702Z,3.83
2022-08-25T09:31:36.370Z,4.47
2022-08-25T09:34:07.725Z,4.03
2022-08-25T09:36:37.753Z,3.35
2022-08-25T09:39:07.860Z,2.65
2022-08-25T09:41:45.757Z,4.43
2022-08-25T09:47:03.924Z,6.47
2022-08-25T09:49:35.458Z,2.90
2022-08-25T09:52:22.758Z,4.63
2022-08-25T09:54:53.973Z,5.00
2022-08-25T09:57:43.376Z,3.60
2022-08-25T10:00:19.325Z,2.70
2022-08-25T10:03:05.842Z,2.72
2022-08-25T10:05:36.556Z,2.95
2022-08-25T10:08:14.713Z,3.75
2022-08-25T10:10:54.912Z,4.65
2022-08-25T10:13:32.146Z,4.03
2022-08-25T10:16:20.011Z,4.95
2022-08-25T10:19:02.692Z,2.47
2022-08-25T10:21:29.518Z,2.42
2022-08-25T10:23:56.385Z,3.15
2022-08-25T10:26:47.995Z,4.05
2022-08-25T10:29:15.181Z,4.70
2022-08-25T10:32:05.612Z,5.10
2022-08-25T10:34:51.431Z,4.05
2022-08-25T10:37:26.531Z,4.30
2022-08-25T10:40:25.408Z,2.42
2022-08-25T10:43:28.078Z,3.60
2022-08-25T10:46:15.331Z,2.40
2022-08-25T10:48:48.143Z,2.90
2022-08-25T10:51:25.257Z,3.35
2022-08-25T10:54:25.293Z,5.90
2022-08-25T10:57:07.114Z,8.73
2022-08-25T11:00:00.173Z,2.42
2022-08-25T11:02:48.795Z,2.10
2022-08-25T11:05:32.101Z,4.68
2022-08-25T11:08:29.853Z,2.60
2022-08-25T11:11:14.524Z,5.75
2022-08-25T11:13:50.564Z,4.53
2022-08-25T11:16:25.736Z,4.63
2022-08-25T11:19:06.987Z,1.90
2022-08-25T11:21:54.068Z,2.80
2022-08-25T11:24:36.265Z,2.00
2022-08-25T11:27:06.520Z,5.53
2022-08-25T11:29:36.771Z,3.60
2022-08-25T11:32:04.596Z,2.97
2022-08-25T11:34:35.173Z,4.35
2022-08-25T11:37:15.327Z,2.63
2022-08-25T11:39:59.053Z,1.70
2022-08-25T11:42:45.539Z,2.70
2022-08-25T11:48:28.138Z,2.95
2022-08-25T11:51:27.394Z,7.40
2022-08-25T11:54:16.413Z,3.30
2022-08-25T11:56:50.830Z,4.38
2022-08-25T11:59:49.736Z,4.57
2022-08-25T12:02:37.601Z,3.70
2022-08-25T12:05:22.050Z,2.40
2022-08-25T12:08:13.336Z,2.13
2022-08-25T12:11:11.098Z,3.30
2022-08-25T12:13:50.940Z,1.92
2022-08-25T12:16:36.272Z,2.00
2022-08-25T12:19:34.334Z,2.25
2022-08-25T12:22:04.237Z,3.80
2022-08-25T12:24:48.140Z,1.95
2022-08-25T12:27:40.125Z,3.88
2022-08-25T12:30:29.085Z,2.50
2022-08-25T12:33:10.514Z,3.05
2022-08-25T12:35:59.283Z,3.13
2022-08-25T12:38:42.480Z,4.00
2022-08-25T12:41:24.998Z,1.67
2022-08-25T12:43:54.456Z,2.65
2022-08-25T12:46:21.472Z,1.75
2022-08-25T12:49:02.371Z,4.10
2022-08-25T12:51:54.179Z,4.10
2022-08-25T12:54:44.074Z,3.92
2022-08-25T12:57:25.076Z,4.30
2022-08-25T12:59:59.465Z,2.50
2022-08-25T13:02:49.651Z,3.08
2022-08-25T13:05:22.274Z,2.55
2022-08-25T13:07:56.638Z,2.42
2022-08-25T13:10:44.857Z,3.05
2022-08-25T13:13:17.545Z,10.43
2022-08-25T13:15:48.727Z,3.58
2022-08-25T13:18:32.551Z,2.13
2022-08-25T13:21:07.210Z,2.35
2022-08-25T13:23:40.902Z,2.75
2022-08-25T13:26:09.303Z,3.58
2022-08-25T13:28:42.480Z,4.05
2022-08-25T13:31:22.106Z,3.33
2022-08-25T13:33:59.315Z,3.15
2022-08-25T13:36:54.125Z,1.70
2022-08-25T13:39:54.994Z,4.50
2022-08-25T13:42:17.016Z,4.60
2022-08-25T13:44:53.794Z,2.08
2022-08-25T13:47:43.873Z,1.55
2022-08-25T13:50:15.584Z,5.15
2022-08-25T13:52:53.452Z,4.30
2022-08-25T13:55:38.147Z,1.90
2022-08-25T13:58:44.699Z,4.80
2022-08-25T14:01:49.453Z,1.48
2022-08-25T14:04:24.946Z,3.63
2022-08-25T14:07:12.830Z,4.75
2022-08-25T14:09:52.458Z,4.85
2022-08-25T14:12:33.642Z,2.25
2022-08-25T14:15:25.917Z,1.80
2022-08-25T14:18:07.693Z,2.15
2022-08-25T14:20:36.368Z,2.58
2022-08-25T14:23:18.875Z,2.60
2022-08-25T14:25:47.210Z,2.17
2022-08-25T14:28:17.856Z,2.13
2022-08-25T14:31:09.086Z,2.83
2022-08-25T14:34:04.892Z,2.10
2022-08-25T14:36:34.385Z,3.83
2022-08-25T14:39:05.900Z,3.28
2022-08-25T14:41:37.507Z,2.10
2022-08-25T14:44:05.610Z,1.88
2022-08-25T14:46:36.513Z,2.90
2022-08-25T14:49:06.155Z,3.83
2022-08-25T14:51:34.548Z,1.60
2022-08-25T14:54:07.323Z,7.78
2022-08-25T14:56:35.933Z,2.58
2022-08-25T14:59:03.353Z,4.25
2022-08-25T15:01:31.745Z,1.83
2022-08-25T15:04:04.937Z,2.63
2022-08-25T15:06:33.507Z,5.70
2022-08-25T15:09:11.558Z,3.95
2022-08-25T15:11:58.149Z,6.68
2022-08-25T15:14:28.888Z,2.38
2022-08-25T15:17:00.425Z,3.03
2022-08-25T15:19:28.399Z,4.57
2022-08-25T15:21:58.094Z,2.70
2022-08-25T15:24:27.530Z,5.97
2022-08-25T15:26:59.584Z,4.35
2022-08-25T15:29:30.100Z,2.63
2022-08-25T15:31:58.714Z,1.88
2022-08-25T15:34:25.924Z,3.58
2022-08-25T15:36:52.737Z,7.13
2022-08-25T15:39:19.630Z,4.38
2022-08-25T15:41:52.202Z,6.30
2022-08-25T15:44:19.966Z,8.05
2022-08-25T15:46:49.603Z,1.85
2022-08-25T15:49:20.906Z,4.18
2022-08-25T15:51:52.293Z,3.67
2022-08-25T15:54:20.118Z,7.45
2022-08-25T15:56:47.139Z,5.00
2022-08-25T15:59:14.132Z,3.65
2022-08-25T16:01:41.462Z,4.20
2022-08-25T16:04:08.338Z,4.05
2022-08-25T16:06:35.251Z,3.92
2022-08-25T16:09:03.586Z,4.55
2022-08-25T16:11:34.865Z,4.90
2022-08-25T16:14:02.302Z,3.20
2022-08-25T16:16:30.903Z,4.95
2022-08-25T16:18:59.609Z,4.38
2022-08-25T16:21:31.559Z,7.47
2022-08-25T16:24:05.461Z,5.82
2022-08-25T16:26:36.402Z,4.40
2022-08-25T16:29:06.485Z,5.53
2022-08-25T16:31:33.564Z,2.67
2022-08-25T16:34:01.517Z,1.90
2022-08-25T16:36:29.147Z,3.75
2022-08-25T16:38:57.588Z,6.38
2022-08-25T16:41:27.146Z,3.53
2022-08-25T16:43:54.427Z,4.03
2022-08-25T16:46:21.751Z,2.03
2022-08-25T16:48:50.741Z,5.13
2022-08-25T16:51:22.657Z,5.93
2022-08-25T16:54:10.992Z,2.70
2022-08-25T16:56:39.016Z,5.53
2022-08-25T16:59:07.355Z,4.43
2022-08-25T17:01:35.338Z,3.63
2022-08-25T17:04:03.606Z,5.63
2022-08-25T17:06:35.314Z,5.47
2022-08-25T17:09:02.315Z,4.07
2022-08-25T17:11:35.028Z,4.13
2022-08-25T17:14:04.507Z,4.00
2022-08-25T17:16:38.267Z,7.68
2022-08-25T17:19:11.823Z,4.03
2022-08-25T17:21:45.114Z,4.95
2022-08-25T17:24:13.853Z,4.65
2022-08-25T17:26:42.215Z,3.05
2022-08-25T17:29:09.890Z,5.22
2022-08-25T17:31:39.715Z,5.20
2022-08-25T17:34:10.386Z,2.72
2022-08-25T17:36:38.223Z,2.83
2022-08-25T17:39:08.691Z,4.55
2022-08-25T17:41:37.636Z,5.22
2022-08-25T17:44:05.620Z,3.13
2022-08-25T17:46:32.697Z,5.55
2022-08-25T17:48:59.632Z,6.72
2022-08-25T17:51:26.415Z,4.00
2022-08-25T17:53:56.439Z,4.53
2022-08-25T17:56:25.808Z,2.90
2022-08-25T17:58:55.644Z,5.15
2022-08-25T18:01:28.486Z,2.35
2022-08-25T18:03:57.313Z,2.42
2022-08-25T18:06:25.003Z,10.70
2022-08-25T18:08:56.315Z,3.75
2022-08-25T18:11:26.016Z,7.13
2022-08-25T18:13:54.217Z,4.90
2022-08-25T18:16:22.198Z,8.25
2022-08-25T18:18:48.989Z,2.08
2022-08-25T18:21:17.913Z,5.38
2022-08-25T18:23:45.735Z,4.00
2022-08-25T18:26:14.609Z,4.28
2022-08-25T18:28:43.833Z,7.07
2022-08-25T18:31:13.161Z,4.35
2022-08-25T18:33:44.407Z,3.72
2022-08-25T18:36:12.938Z,3.15
2022-08-25T18:38:59.501Z,2.55
2022-08-25T18:43:54.588Z,3.58
2022-08-25T18:46:22.784Z,4.38
2022-08-25T18:48:52.809Z,3.72
2022-08-25T18:51:22.941Z,4.20
2022-08-25T18:53:51.391Z,6.00
2022-08-25T18:56:22.770Z,3.42
2022-08-25T18:58:49.967Z,5.60
2022-08-25T19:01:19.761Z,2.95
2022-08-25T19:03:46.778Z,6.78
2022-08-25T19:06:14.918Z,4.57
2022-08-25T19:08:42.255Z,2.65
2022-08-25T19:11:10.016Z,3.28
2022-08-25T19:13:38.157Z,3.47
2022-08-25T19:16:17.518Z,2.80
2022-08-25T19:18:47.145Z,6.43
2022-08-25T19:21:14.223Z,3.58
2022-08-25T19:23:41.109Z,4.03
2022-08-25T19:26:13.961Z,2.60
2022-08-25T19:31:23.330Z,5.03
2022-08-25T19:33:52.540Z,3.35
2022-08-25T19:36:24.230Z,2.60
2022-08-25T19:38:58.434Z,3.40
2022-08-25T19:41:27.620Z,3.95
2022-08-25T19:43:56.283Z,4.05
2022-08-25T19:46:33.053Z,3.75
2022-08-25T19:49:09.231Z,4.40
2022-08-25T19:51:44.080Z,7.80
2022-08-25T19:54:13.753Z,3.37
2022-08-25T19:56:43.676Z,4.72
2022-08-25T19:59:22.964Z,3.83
2022-08-25T20:01:50.168Z,2.72
2022-08-25T20:04:17.112Z,5.68
2022-08-25T20:06:44.171Z,5.05
2022-08-25T20:09:29.342Z,5.10
2022-08-25T20:12:03.166Z,6.88
2022-08-25T20:14:30.172Z,4.93
2022-08-25T20:16:57.005Z,4.68
2022-08-25T20:19:23.885Z,2.80
2022-08-25T20:21:50.654Z,5.95
2022-08-25T20:24:36.264Z,3.58
2022-08-25T20:27:03.953Z,5.28
2022-08-25T20:29:31.732Z,7.35
2022-08-25T20:31:59.294Z,5.25
2022-08-25T20:34:28.919Z,3.38
2022-08-25T20:36:55.971Z,5.78
2022-08-25T20:39:22.978Z,3.55
2022-08-25T20:41:49.787Z,3.40
2022-08-25T20:44:17.875Z,3.13
2022-08-25T20:46:45.953Z,3.42
2022-08-25T20:49:13.631Z,6.03
2022-08-25T20:51:40.851Z,7.38
2022-08-25T20:54:11.937Z,4.05
2022-08-25T20:56:38.713Z,3.45
2022-08-25T20:59:05.455Z,4.40
2022-08-25T21:01:37.959Z,8.27
2022-08-25T21:04:15.105Z,3.25
2022-08-25T21:06:43.090Z,4.93
2022-08-25T21:09:16.094Z,9.02
2022-08-25T21:11:44.292Z,4.63
2022-08-25T21:14:13.626Z,9.32
2022-08-25T21:16:46.338Z,5.90
2022-08-25T21:19:26.582Z,13.38
2022-08-25T21:21:59.660Z,7.47
2022-08-25T21:24:28.091Z,5.60
2022-08-25T21:26:56.935Z,4.30
2022-08-25T21:29:25.933Z,7.32
2022-08-25T21:31:58.675Z,5.63
2022-08-25T21:34:28.235Z,3.25
2022-08-25T21:37:00.258Z,5.80
2022-08-25T21:39:29.490Z,10.95
2022-08-25T21:42:00.082Z,5.18
2022-08-25T21:44:27.864Z,4.50
2022-08-25T21:46:54.923Z,7.25
2022-08-25T21:49:23.225Z,7.13
2022-08-25T21:52:01.045Z,4.10
2022-08-25T21:54:29.573Z,5.50
2022-08-25T21:57:03.316Z,5.10
2022-08-25T21:59:36.367Z,6.60
2022-08-25T22:02:07.769Z,3.33
2022-08-25T22:04:38.307Z,5.35
2022-08-25T22:07:06.697Z,5.80
2022-08-25T22:09:33.912Z,7.18
2022-08-25T22:12:00.668Z,6.63
2022-08-25T22:14:29.465Z,4.60
2022-08-25T22:16:56.439Z,8.50
2022-08-25T22:19:24.688Z,7.65
2022-08-25T22:21:52.718Z,4.53
2022-08-25T22:24:20.185Z,5.10
2022-08-25T22:26:48.580Z,4.40
2022-08-25T22:29:24.854Z,3.47
2022-08-25T22:31:53.047Z,4.97
2022-08-25T22:34:20.029Z,7.13
2022-08-25T22:36:59.664Z,5.90
2022-08-25T22:39:27.546Z,9.45
2022-08-25T22:41:54.539Z,6.88
2022-08-25T22:44:23.116Z,4.78
2022-08-25T22:46:50.184Z,5.78
2022-08-25T22:49:17.304Z,7.57
2022-08-25T22:51:44.215Z,4.80
2022-08-25T22:54:15.004Z,4.55
2022-08-25T22:56:42.173Z,10.40
2022-08-25T22:59:11.843Z,4.63
2022-08-25T23:01:39.656Z,7.85
2022-08-25T23:04:07.248Z,4.97
2022-08-25T23:06:37.073Z,6.72
2022-08-25T23:09:06.911Z,9.13
2022-08-25T23:11:35.541Z,6.05
2022-08-25T23:14:09.989Z,11.30
2022-08-25T23:16:38.740Z,4.78
2022-08-25T23:19:05.834Z,3.97
2022-08-25T23:21:52.973Z,14.18
2022-08-25T23:24:29.565Z,7.43
2022-08-25T23:27:01.406Z,6.93
2022-08-25T23:29:29.681Z,5.20
2022-08-25T23:31:57.909Z,6.53
2022-08-25T23:34:25.680Z,5.45
2022-08-25T23:36:52.565Z,7.22
2022-08-25T23:39:21.696Z,3.85
2022-08-25T23:41:49.694Z,6.22
2022-08-25T23:44:17.086Z,6.65
2022-08-25T23:46:45.115Z,5.40
2022-08-25T23:49:12.757Z,6.75
2022-08-25T23:51:41.037Z,4.90
2022-08-25T23:54:11.629Z,8.02
2022-08-25T23:56:44.465Z,3.85
2022-08-25T23:59:18.168Z,7.05
